Aérodrome :
LOGIN :

S'inscrire | Disclaimer

   EN    FR    IT 

 










Légende :    VFR   VFR Marginal   IFR   IFR Intensif   IFR Très Intensif
Visi : 
Plafond : 
>= 8 km
>= 3000ft
5 à 8 km
1000 à 3000 ft
1500m à 5 km
500 à 1000 ft
800 à 1500m
200 à 500 ft
< 800m
< 200 ft
Symboles :   Orages  Brouillard  Fortes neiges  Fortes précipitations  Vent > 20 kt
SIGMETs :   Divers  Orages  Givrage  Turbulence  Onde Orograph.  Cendres Volcan.






- Altitude de l'aérodrome : 289 ft


LIRG - Guidonia

DERNIER METAR :
  • 150855Z 13002KT 9999 BKN035 20/13 Q1019

METARs EXPIRÉS :
  • 150755Z 15004KT CAVOK 17/14 Q1019 RMK SCT SCT070 MON NE LIB NC VIS MIN 9999 BLU
  • 150655Z 21001KT CAVOK 14/13 Q1019 RMK SKC MON NE LIB NC VIS MIN 9999 BLU

TAF TAF LIRG
Valide du 15 à 09h jusqu'au 15 à 18h UTC


150800Z 1509/1518 16012KT 9999 SCT045
TEMPO 1512/1518 RA BKN025



MET'MAP, la Météo Aéronautique d'un coup d'oeil ! - Copyright ORBIFLY Décembre 2007 - Disclaimer

ORBIFLY MET'MAP TEAM :

Programmation & Développement : Alexandra Zaïnal
Conception & Développement : Baudouin d'Aumeries
Co-Programmation & Développement : Marc-Olivier Méhu
Soutien technique & logistique : Manuel Goepfert

Contact : metmap@orbifly.com




SOURCES & CREDITS :

   NOAA